sensor_id;sensor_type;location;lat;lon;timestamp;temperature;humidity
6443;DHT22;3254;47.372;8.512;2023-10-31T00:00:38;9.70;99.90
6443;DHT22;3254;47.372;8.512;2023-10-31T00:03:03;9.80;97.20
6443;DHT22;3254;47.372;8.512;2023-10-31T00:05:29;9.80;96.90
6443;DHT22;3254;47.372;8.512;2023-10-31T00:07:54;9.80;96.40
6443;DHT22;3254;47.372;8.512;2023-10-31T00:10:20;9.80;96.30
6443;DHT22;3254;47.372;8.512;2023-10-31T00:12:46;9.80;96.10
6443;DHT22;3254;47.372;8.512;2023-10-31T00:15:11;9.70;99.30
6443;DHT22;3254;47.372;8.512;2023-10-31T00:17:37;9.70;99.90
6443;DHT22;3254;47.372;8.512;2023-10-31T00:20:04;9.70;99.90
6443;DHT22;3254;47.372;8.512;2023-10-31T00:22:52;9.60;99.90
6443;DHT22;3254;47.372;8.512;2023-10-31T00:25:18;9.60;99.90
6443;DHT22;3254;47.372;8.512;2023-10-31T00:27:43;9.60;99.90
6443;DHT22;3254;47.372;8.512;2023-10-31T00:30:09;9.60;99.90
6443;DHT22;3254;47.372;8.512;2023-10-31T00:32:34;9.70;99.90
6443;DHT22;3254;47.372;8.512;2023-10-31T00:35:00;9.70;97.40
6443;DHT22;3254;47.372;8.512;2023-10-31T00:37:25;9.70;99.90
6443;DHT22;3254;47.372;8.512;2023-10-31T00:39:51;9.80;98.70
6443;DHT22;3254;47.372;8.512;2023-10-31T00:42:16;9.80;96.90
6443;DHT22;3254;47.372;8.512;2023-10-31T00:44:42;9.80;99.20
6443;DHT22;3254;47.372;8.512;2023-10-31T00:47:08;9.70;99.90
6443;DHT22;3254;47.372;8.512;2023-10-31T00:49:33;9.70;99.90
6443;DHT22;3254;47.372;8.512;2023-10-31T00:51:59;9.70;99.90
6443;DHT22;3254;47.372;8.512;2023-10-31T00:54:24;9.70;96.80
6443;DHT22;3254;47.372;8.512;2023-10-31T00:56:50;9.70;96.00
6443;DHT22;3254;47.372;8.512;2023-10-31T00:59:15;9.80;92.60
6443;DHT22;3254;47.372;8.512;2023-10-31T01:01:42;9.90;87.90
6443;DHT22;3254;47.372;8.512;2023-10-31T01:04:08;9.80;96.60
6443;DHT22;3254;47.372;8.512;2023-10-31T01:06:33;9.90;91.60
6443;DHT22;3254;47.372;8.512;2023-10-31T01:08:59;9.90;90.20
6443;DHT22;3254;47.372;8.512;2023-10-31T01:11:24;9.90;88.50
6443;DHT22;3254;47.372;8.512;2023-10-31T01:13:50;9.80;91.20
6443;DHT22;3254;47.372;8.512;2023-10-31T01:16:15;9.80;89.50
6443;DHT22;3254;47.372;8.512;2023-10-31T01:18:42;9.80;88.50
6443;DHT22;3254;47.372;8.512;2023-10-31T01:21:08;9.80;87.00
6443;DHT22;3254;47.372;8.512;2023-10-31T01:23:34;9.80;77.10
6443;DHT22;3254;47.372;8.512;2023-10-31T01:25:59;9.80;77.60
6443;DHT22;3254;47.372;8.512;2023-10-31T01:28:25;9.80;75.90
6443;DHT22;3254;47.372;8.512;2023-10-31T01:30:51;9.70;76.70
6443;DHT22;3254;47.372;8.512;2023-10-31T01:33:16;9.60;85.80
6443;DHT22;3254;47.372;8.512;2023-10-31T01:35:42;9.60;74.90
6443;DHT22;3254;47.372;8.512;2023-10-31T01:38:07;9.60;69.60
6443;DHT22;3254;47.372;8.512;2023-10-31T01:40:33;9.70;64.30
6443;DHT22;3254;47.372;8.512;2023-10-31T01:42:58;9.60;70.00
6443;DHT22;3254;47.372;8.512;2023-10-31T01:45:24;9.70;64.10
6443;DHT22;3254;47.372;8.512;2023-10-31T01:47:49;9.70;56.60
6443;DHT22;3254;47.372;8.512;2023-10-31T01:50:16;9.70;54.00
6443;DHT22;3254;47.372;8.512;2023-10-31T01:52:43;9.70;50.30
6443;DHT22;3254;47.372;8.512;2023-10-31T01:55:09;9.60;47.00
6443;DHT22;3254;47.372;8.512;2023-10-31T01:57:35;9.70;51.20
6443;DHT22;3254;47.372;8.512;2023-10-31T02:00:01;9.60;51.00
6443;DHT22;3254;47.372;8.512;2023-10-31T02:02:27;9.60;50.70
6443;DHT22;3254;47.372;8.512;2023-10-31T02:04:54;9.70;46.80
6443;DHT22;3254;47.372;8.512;2023-10-31T02:07:19;9.60;48.00
6443;DHT22;3254;47.372;8.512;2023-10-31T02:09:45;9.70;39.60
6443;DHT22;3254;47.372;8.512;2023-10-31T02:12:10;9.70;44.80
6443;DHT22;3254;47.372;8.512;2023-10-31T02:14:36;9.70;41.70
6443;DHT22;3254;47.372;8.512;2023-10-31T02:17:02;9.80;37.50
6443;DHT22;3254;47.372;8.512;2023-10-31T02:19:27;9.80;34.40
6443;DHT22;3254;47.372;8.512;2023-10-31T02:21:53;9.70;40.40
6443;DHT22;3254;47.372;8.512;2023-10-31T02:24:18;9.70;39.70
6443;DHT22;3254;47.372;8.512;2023-10-31T02:26:44;9.70;40.30
6443;DHT22;3254;47.372;8.512;2023-10-31T02:29:10;9.70;34.70
6443;DHT22;3254;47.372;8.512;2023-10-31T02:31:35;9.60;44.00
6443;DHT22;3254;47.372;8.512;2023-10-31T02:34:01;9.60;40.40
6443;DHT22;3254;47.372;8.512;2023-10-31T02:36:26;9.60;37.50
6443;DHT22;3254;47.372;8.512;2023-10-31T02:38:52;9.60;42.70
6443;DHT22;3254;47.372;8.512;2023-10-31T02:41:17;9.70;40.60
6443;DHT22;3254;47.372;8.512;2023-10-31T02:43:43;9.70;34.20
6443;DHT22;3254;47.372;8.512;2023-10-31T02:46:08;9.80;27.90
6443;DHT22;3254;47.372;8.512;2023-10-31T02:48:37;9.90;26.00
6443;DHT22;3254;47.372;8.512;2023-10-31T02:51:07;9.90;24.00
6443;DHT22;3254;47.372;8.512;2023-10-31T02:53:34;10.00;22.10
6443;DHT22;3254;47.372;8.512;2023-10-31T02:56:00;9.80;26.50
6443;DHT22;3254;47.372;8.512;2023-10-31T02:58:25;9.70;31.70
6443;DHT22;3254;47.372;8.512;2023-10-31T03:00:51;9.60;32.10
6443;DHT22;3254;47.372;8.512;2023-10-31T03:03:16;9.60;28.90
6443;DHT22;3254;47.372;8.512;2023-10-31T03:05:42;9.60;24.70
6443;DHT22;3254;47.372;8.512;2023-10-31T03:08:08;9.60;20.60
6443;DHT22;3254;47.372;8.512;2023-10-31T03:10:35;9.70;20.70
6443;DHT22;3254;47.372;8.512;2023-10-31T03:13:01;9.80;17.20
6443;DHT22;3254;47.372;8.512;2023-10-31T03:15:27;9.70;19.90
6443;DHT22;3254;47.372;8.512;2023-10-31T03:17:53;9.70;14.50
6443;DHT22;3254;47.372;8.512;2023-10-31T03:20:19;9.80;17.30
6443;DHT22;3254;47.372;8.512;2023-10-31T03:22:44;9.70;18.30
6443;DHT22;3254;47.372;8.512;2023-10-31T03:25:10;9.70;17.00
6443;DHT22;3254;47.372;8.512;2023-10-31T03:27:36;9.70;21.60
6443;DHT22;3254;47.372;8.512;2023-10-31T03:30:01;9.70;16.80
6443;DHT22;3254;47.372;8.512;2023-10-31T03:32:27;9.70;16.50
6443;DHT22;3254;47.372;8.512;2023-10-31T03:34:52;9.70;14.50
6443;DHT22;3254;47.372;8.512;2023-10-31T03:37:18;9.70;13.30
6443;DHT22;3254;47.372;8.512;2023-10-31T03:39:44;9.70;11.00
6443;DHT22;3254;47.372;8.512;2023-10-31T03:42:09;9.60;11.60
6443;DHT22;3254;47.372;8.512;2023-10-31T03:44:35;9.70;7.20
6443;DHT22;3254;47.372;8.512;2023-10-31T03:47:00;9.60;9.20
6443;DHT22;3254;47.372;8.512;2023-10-31T03:49:26;9.60;11.90
6443;DHT22;3254;47.372;8.512;2023-10-31T03:51:51;9.20;34.80
6443;DHT22;3254;47.372;8.512;2023-10-31T03:54:17;9.10;32.60
6443;DHT22;3254;47.372;8.512;2023-10-31T03:56:43;9.10;30.50
6443;DHT22;3254;47.372;8.512;2023-10-31T03:59:09;9.10;33.40
6443;DHT22;3254;47.372;8.512;2023-10-31T04:01:35;9.00;37.10
6443;DHT22;3254;47.372;8.512;2023-10-31T04:04:01;9.00;34.70
6443;DHT22;3254;47.372;8.512;2023-10-31T04:06:27;9.00;40.90
6443;DHT22;3254;47.372;8.512;2023-10-31T04:08:52;8.90;43.10
6443;DHT22;3254;47.372;8.512;2023-10-31T04:11:18;8.90;44.70
6443;DHT22;3254;47.372;8.512;2023-10-31T04:13:44;8.80;45.50
6443;DHT22;3254;47.372;8.512;2023-10-31T04:16:09;8.80;55.00
6443;DHT22;3254;47.372;8.512;2023-10-31T04:18:36;8.80;51.70
6443;DHT22;3254;47.372;8.512;2023-10-31T04:21:02;8.80;46.60
6443;DHT22;3254;47.372;8.512;2023-10-31T04:23:27;8.90;41.60
6443;DHT22;3254;47.372;8.512;2023-10-31T04:25:53;8.90;44.30
6443;DHT22;3254;47.372;8.512;2023-10-31T04:28:19;9.00;39.40
6443;DHT22;3254;47.372;8.512;2023-10-31T04:30:44;8.90;37.60
6443;DHT22;3254;47.372;8.512;2023-10-31T04:33:10;8.90;37.30
6443;DHT22;3254;47.372;8.512;2023-10-31T04:35:35;8.90;34.90
6443;DHT22;3254;47.372;8.512;2023-10-31T04:38:01;8.90;34.10
6443;DHT22;3254;47.372;8.512;2023-10-31T04:40:26;8.90;36.70
6443;DHT22;3254;47.372;8.512;2023-10-31T04:42:52;8.90;32.80
6443;DHT22;3254;47.372;8.512;2023-10-31T04:45:18;9.00;27.50
6443;DHT22;3254;47.372;8.512;2023-10-31T04:47:43;9.00;29.60
6443;DHT22;3254;47.372;8.512;2023-10-31T04:50:09;9.00;26.60
6443;DHT22;3254;47.372;8.512;2023-10-31T04:52:35;9.10;26.60
6443;DHT22;3254;47.372;8.512;2023-10-31T04:55:00;9.10;24.80
6443;DHT22;3254;47.372;8.512;2023-10-31T04:57:26;9.10;23.80
6443;DHT22;3254;47.372;8.512;2023-10-31T04:59:51;9.20;18.20
6443;DHT22;3254;47.372;8.512;2023-10-31T05:02:21;9.10;20.60
6443;DHT22;3254;47.372;8.512;2023-10-31T05:04:48;9.10;20.00
6443;DHT22;3254;47.372;8.512;2023-10-31T05:07:16;9.20;21.20
6443;DHT22;3254;47.372;8.512;2023-10-31T05:09:42;9.20;19.50
6443;DHT22;3254;47.372;8.512;2023-10-31T05:12:08;9.20;20.40
6443;DHT22;3254;47.372;8.512;2023-10-31T05:14:33;9.10;21.60
6443;DHT22;3254;47.372;8.512;2023-10-31T05:16:59;9.20;18.10
6443;DHT22;3254;47.372;8.512;2023-10-31T05:19:24;9.30;13.70
6443;DHT22;3254;47.372;8.512;2023-10-31T05:21:51;9.30;13.60
6443;DHT22;3254;47.372;8.512;2023-10-31T05:24:16;9.30;9.90
6443;DHT22;3254;47.372;8.512;2023-10-31T05:26:42;9.30;4.60
6443;DHT22;3254;47.372;8.512;2023-10-31T05:29:08;9.40;2.20
6443;DHT22;3254;47.372;8.512;2023-10-31T05:31:34;9.50;1.00
6443;DHT22;3254;47.372;8.512;2023-10-31T05:34:00;9.60;1.00
6443;DHT22;3254;47.372;8.512;2023-10-31T05:36:26;9.60;1.00
6443;DHT22;3254;47.372;8.512;2023-10-31T05:38:53;9.60;1.00
6443;DHT22;3254;47.372;8.512;2023-10-31T05:41:18;9.60;1.00
6443;DHT22;3254;47.372;8.512;2023-10-31T05:43:44;9.60;1.00
6443;DHT22;3254;47.372;8.512;2023-10-31T05:46:10;9.60;1.00
6443;DHT22;3254;47.372;8.512;2023-10-31T05:48:39;9.60;1.00
6443;DHT22;3254;47.372;8.512;2023-10-31T05:51:16;9.60;1.00
6443;DHT22;3254;47.372;8.512;2023-10-31T05:53:43;9.70;1.00
6443;DHT22;3254;47.372;8.512;2023-10-31T05:56:11;9.70;1.00
6443;DHT22;3254;47.372;8.512;2023-10-31T05:58:38;9.70;1.00
6443;DHT22;3254;47.372;8.512;2023-10-31T06:01:04;9.80;1.00
6443;DHT22;3254;47.372;8.512;2023-10-31T06:03:30;9.80;1.00
6443;DHT22;3254;47.372;8.512;2023-10-31T06:05:55;9.70;1.00
6443;DHT22;3254;47.372;8.512;2023-10-31T06:08:21;9.70;1.00
6443;DHT22;3254;47.372;8.512;2023-10-31T06:10:46;9.60;1.00
6443;DHT22;3254;47.372;8.512;2023-10-31T06:13:12;9.70;1.00
6443;DHT22;3254;47.372;8.512;2023-10-31T06:15:37;9.70;1.00
6443;DHT22;3254;47.372;8.512;2023-10-31T06:18:03;9.80;1.00
6443;DHT22;3254;47.372;8.512;2023-10-31T06:20:29;9.70;1.00
6443;DHT22;3254;47.372;8.512;2023-10-31T06:22:54;9.80;1.00
6443;DHT22;3254;47.372;8.512;2023-10-31T06:25:20;9.70;1.00
6443;DHT22;3254;47.372;8.512;2023-10-31T06:27:45;9.60;1.00
6443;DHT22;3254;47.372;8.512;2023-10-31T06:30:11;9.70;1.00
6443;DHT22;3254;47.372;8.512;2023-10-31T06:32:37;9.60;1.00
6443;DHT22;3254;47.372;8.512;2023-10-31T06:35:05;9.70;1.00
6443;DHT22;3254;47.372;8.512;2023-10-31T06:37:31;9.60;1.00
6443;DHT22;3254;47.372;8.512;2023-10-31T06:39:56;9.20;2.00
6443;DHT22;3254;47.372;8.512;2023-10-31T06:42:22;8.70;46.00
6443;DHT22;3254;47.372;8.512;2023-10-31T06:44:48;8.60;44.10
6443;DHT22;3254;47.372;8.512;2023-10-31T06:47:13;8.50;46.30
6443;DHT22;3254;47.372;8.512;2023-10-31T06:49:39;8.50;47.70
6443;DHT22;3254;47.372;8.512;2023-10-31T06:52:05;8.60;44.30
6443;DHT22;3254;47.372;8.512;2023-10-31T06:54:31;8.70;47.70
6443;DHT22;3254;47.372;8.512;2023-10-31T06:56:57;8.80;46.90
6443;DHT22;3254;47.372;8.512;2023-10-31T06:59:22;8.80;42.40
6443;DHT22;3254;47.372;8.512;2023-10-31T07:01:48;8.90;37.00
6443;DHT22;3254;47.372;8.512;2023-10-31T07:04:14;9.00;31.90
6443;DHT22;3254;47.372;8.512;2023-10-31T07:06:39;9.10;25.00
6443;DHT22;3254;47.372;8.512;2023-10-31T07:09:05;9.10;21.70
6443;DHT22;3254;47.372;8.512;2023-10-31T07:11:31;9.20;20.60
6443;DHT22;3254;47.372;8.512;2023-10-31T07:14:00;9.30;16.10
6443;DHT22;3254;47.372;8.512;2023-10-31T07:16:27;9.30;14.10
6443;DHT22;3254;47.372;8.512;2023-10-31T07:18:53;9.40;11.30
6443;DHT22;3254;47.372;8.512;2023-10-31T07:21:18;9.40;13.80
6443;DHT22;3254;47.372;8.512;2023-10-31T07:23:44;9.40;11.30
6443;DHT22;3254;47.372;8.512;2023-10-31T07:26:10;9.30;14.70
6443;DHT22;3254;47.372;8.512;2023-10-31T07:28:35;9.30;13.30
6443;DHT22;3254;47.372;8.512;2023-10-31T07:31:01;9.40;9.90
6443;DHT22;3254;47.372;8.512;2023-10-31T07:33:27;9.30;9.60
6443;DHT22;3254;47.372;8.512;2023-10-31T07:35:53;9.30;10.90
6443;DHT22;3254;47.372;8.512;2023-10-31T07:38:18;9.30;10.30
6443;DHT22;3254;47.372;8.512;2023-10-31T07:40:44;9.40;11.20
6443;DHT22;3254;47.372;8.512;2023-10-31T07:43:09;9.40;9.70
6443;DHT22;3254;47.372;8.512;2023-10-31T07:45:35;9.40;8.50
6443;DHT22;3254;47.372;8.512;2023-10-31T07:48:01;9.40;7.20
6443;DHT22;3254;47.372;8.512;2023-10-31T07:50:27;9.50;6.30
6443;DHT22;3254;47.372;8.512;2023-10-31T07:52:52;9.50;5.30
6443;DHT22;3254;47.372;8.512;2023-10-31T07:55:18;9.50;8.00
6443;DHT22;3254;47.372;8.512;2023-10-31T07:57:44;9.60;4.20
6443;DHT22;3254;47.372;8.512;2023-10-31T08:00:11;9.60;1.60
6443;DHT22;3254;47.372;8.512;2023-10-31T08:02:36;9.60;5.00
6443;DHT22;3254;47.372;8.512;2023-10-31T08:05:02;9.60;6.60
6443;DHT22;3254;47.372;8.512;2023-10-31T08:07:28;9.60;4.00
6443;DHT22;3254;47.372;8.512;2023-10-31T08:09:56;9.60;3.70
6443;DHT22;3254;47.372;8.512;2023-10-31T08:12:22;9.60;4.50
6443;DHT22;3254;47.372;8.512;2023-10-31T08:14:48;9.70;1.70
6443;DHT22;3254;47.372;8.512;2023-10-31T08:17:14;9.70;3.30
6443;DHT22;3254;47.372;8.512;2023-10-31T08:19:39;9.70;3.20
6443;DHT22;3254;47.372;8.512;2023-10-31T08:22:05;9.80;1.90
6443;DHT22;3254;47.372;8.512;2023-10-31T08:24:30;9.90;1.00
6443;DHT22;3254;47.372;8.512;2023-10-31T08:26:56;9.90;1.00
6443;DHT22;3254;47.372;8.512;2023-10-31T08:29:21;9.90;1.00
6443;DHT22;3254;47.372;8.512;2023-10-31T08:31:47;9.90;1.00
6443;DHT22;3254;47.372;8.512;2023-10-31T08:34:12;9.90;1.00
6443;DHT22;3254;47.372;8.512;2023-10-31T08:36:38;10.00;1.00
6443;DHT22;3254;47.372;8.512;2023-10-31T08:39:04;10.00;1.00
6443;DHT22;3254;47.372;8.512;2023-10-31T08:41:29;10.10;1.00
6443;DHT22;3254;47.372;8.512;2023-10-31T08:43:55;10.30;1.00
6443;DHT22;3254;47.372;8.512;2023-10-31T08:46:21;10.40;1.00
6443;DHT22;3254;47.372;8.512;2023-10-31T08:48:47;10.50;1.00
6443;DHT22;3254;47.372;8.512;2023-10-31T08:51:12;10.40;1.00
6443;DHT22;3254;47.372;8.512;2023-10-31T08:53:38;10.40;1.00
6443;DHT22;3254;47.372;8.512;2023-10-31T08:56:04;10.40;1.00
6443;DHT22;3254;47.372;8.512;2023-10-31T08:58:29;10.50;1.00
6443;DHT22;3254;47.372;8.512;2023-10-31T09:00:55;10.50;1.00
6443;DHT22;3254;47.372;8.512;2023-10-31T09:03:22;10.50;1.00
6443;DHT22;3254;47.372;8.512;2023-10-31T09:05:47;10.50;1.00
6443;DHT22;3254;47.372;8.512;2023-10-31T09:08:13;10.60;1.00
6443;DHT22;3254;47.372;8.512;2023-10-31T09:10:38;10.70;1.00
6443;DHT22;3254;47.372;8.512;2023-10-31T09:13:05;10.90;1.00
6443;DHT22;3254;47.372;8.512;2023-10-31T09:15:31;11.00;1.00
6443;DHT22;3254;47.372;8.512;2023-10-31T09:17:56;11.10;1.00
6443;DHT22;3254;47.372;8.512;2023-10-31T09:20:22;11.30;1.00
6443;DHT22;3254;47.372;8.512;2023-10-31T09:22:47;11.50;1.00
6443;DHT22;3254;47.372;8.512;2023-10-31T09:25:13;11.80;1.00
6443;DHT22;3254;47.372;8.512;2023-10-31T09:27:41;11.90;1.00
6443;DHT22;3254;47.372;8.512;2023-10-31T09:30:07;12.10;1.00
6443;DHT22;3254;47.372;8.512;2023-10-31T09:32:33;12.10;1.00
6443;DHT22;3254;47.372;8.512;2023-10-31T09:34:58;11.90;1.00
6443;DHT22;3254;47.372;8.512;2023-10-31T09:37:24;12.00;1.00
6443;DHT22;3254;47.372;8.512;2023-10-31T09:39:49;11.90;1.00
6443;DHT22;3254;47.372;8.512;2023-10-31T09:42:15;12.00;1.00
6443;DHT22;3254;47.372;8.512;2023-10-31T09:44:41;12.10;1.00
6443;DHT22;3254;47.372;8.512;2023-10-31T09:47:06;12.30;1.00
6443;DHT22;3254;47.372;8.512;2023-10-31T09:49:32;12.60;1.00
6443;DHT22;3254;47.372;8.512;2023-10-31T09:51:58;12.40;1.00
6443;DHT22;3254;47.372;8.512;2023-10-31T09:54:25;12.50;1.00
6443;DHT22;3254;47.372;8.512;2023-10-31T09:56:51;12.60;1.00
6443;DHT22;3254;47.372;8.512;2023-10-31T09:59:17;12.70;1.00
6443;DHT22;3254;47.372;8.512;2023-10-31T10:01:42;12.70;1.00
6443;DHT22;3254;47.372;8.512;2023-10-31T10:04:08;12.80;1.00
6443;DHT22;3254;47.372;8.512;2023-10-31T10:06:34;12.80;1.00
6443;DHT22;3254;47.372;8.512;2023-10-31T10:09:00;12.80;1.00
6443;DHT22;3254;47.372;8.512;2023-10-31T10:11:29;12.70;1.00
6443;DHT22;3254;47.372;8.512;2023-10-31T10:13:56;12.80;1.00
6443;DHT22;3254;47.372;8.512;2023-10-31T10:16:31;12.80;1.00
6443;DHT22;3254;47.372;8.512;2023-10-31T10:18:58;13.20;1.00
6443;DHT22;3254;47.372;8.512;2023-10-31T10:21:54;13.40;1.00
6443;DHT22;3254;47.372;8.512;2023-10-31T10:24:21;13.60;1.00
6443;DHT22;3254;47.372;8.512;2023-10-31T10:26:47;13.30;1.00
6443;DHT22;3254;47.372;8.512;2023-10-31T10:29:13;13.50;1.00
6443;DHT22;3254;47.372;8.512;2023-10-31T10:31:39;13.40;1.00
6443;DHT22;3254;47.372;8.512;2023-10-31T10:34:06;13.30;1.00
6443;DHT22;3254;47.372;8.512;2023-10-31T10:36:33;13.30;1.00
6443;DHT22;3254;47.372;8.512;2023-10-31T10:38:59;13.40;1.00
6443;DHT22;3254;47.372;8.512;2023-10-31T10:41:26;13.50;1.00
6443;DHT22;3254;47.372;8.512;2023-10-31T10:44:11;13.40;1.00
6443;DHT22;3254;47.372;8.512;2023-10-31T10:46:40;13.20;1.00
6443;DHT22;3254;47.372;8.512;2023-10-31T10:49:07;13.30;1.00
6443;DHT22;3254;47.372;8.512;2023-10-31T10:51:55;13.20;1.00
6443;DHT22;3254;47.372;8.512;2023-10-31T10:54:40;13.10;1.00
6443;DHT22;3254;47.372;8.512;2023-10-31T10:57:35;13.00;1.00
6443;DHT22;3254;47.372;8.512;2023-10-31T11:00:04;13.20;1.00
6443;DHT22;3254;47.372;8.512;2023-10-31T11:02:30;13.20;1.00
6443;DHT22;3254;47.372;8.512;2023-10-31T11:04:56;13.10;1.00
6443;DHT22;3254;47.372;8.512;2023-10-31T11:07:22;13.10;1.00
6443;DHT22;3254;47.372;8.512;2023-10-31T11:09:49;13.20;1.00
6443;DHT22;3254;47.372;8.512;2023-10-31T11:12:15;13.30;1.00
6443;DHT22;3254;47.372;8.512;2023-10-31T11:14:42;13.10;1.00
6443;DHT22;3254;47.372;8.512;2023-10-31T11:17:38;13.20;1.00
6443;DHT22;3254;47.372;8.512;2023-10-31T11:20:06;13.60;1.00
6443;DHT22;3254;47.372;8.512;2023-10-31T11:22:42;13.50;1.00
6443;DHT22;3254;47.372;8.512;2023-10-31T11:25:12;13.40;1.00
6443;DHT22;3254;47.372;8.512;2023-10-31T11:27:38;13.40;1.00
6443;DHT22;3254;47.372;8.512;2023-10-31T11:32:52;13.50;1.00
6443;DHT22;3254;47.372;8.512;2023-10-31T11:35:17;13.50;1.00
6443;DHT22;3254;47.372;8.512;2023-10-31T11:37:44;13.50;1.00
6443;DHT22;3254;47.372;8.512;2023-10-31T11:40:17;13.50;1.00
6443;DHT22;3254;47.372;8.512;2023-10-31T11:42:52;13.60;1.00
6443;DHT22;3254;47.372;8.512;2023-10-31T11:48:06;13.20;1.00
6443;DHT22;3254;47.372;8.512;2023-10-31T11:50:33;13.20;1.00
6443;DHT22;3254;47.372;8.512;2023-10-31T11:55:42;12.90;1.00
6443;DHT22;3254;47.372;8.512;2023-10-31T11:58:22;12.90;1.00
6443;DHT22;3254;47.372;8.512;2023-10-31T12:00:50;12.80;1.00
6443;DHT22;3254;47.372;8.512;2023-10-31T12:03:17;12.60;1.00
6443;DHT22;3254;47.372;8.512;2023-10-31T12:05:57;12.60;1.00
6443;DHT22;3254;47.372;8.512;2023-10-31T12:08:29;12.60;1.00
6443;DHT22;3254;47.372;8.512;2023-10-31T12:11:10;12.70;1.00
6443;DHT22;3254;47.372;8.512;2023-10-31T12:13:40;12.80;1.00
6443;DHT22;3254;47.372;8.512;2023-10-31T12:16:08;12.70;1.00
6443;DHT22;3254;47.372;8.512;2023-10-31T12:18:37;12.80;1.00
6443;DHT22;3254;47.372;8.512;2023-10-31T12:21:04;12.90;1.00
6443;DHT22;3254;47.372;8.512;2023-10-31T12:23:30;12.90;1.00
6443;DHT22;3254;47.372;8.512;2023-10-31T12:25:55;12.90;1.00
6443;DHT22;3254;47.372;8.512;2023-10-31T12:28:23;12.90;1.00
6443;DHT22;3254;47.372;8.512;2023-10-31T12:30:52;12.80;1.00
6443;DHT22;3254;47.372;8.512;2023-10-31T12:33:22;12.60;1.00
6443;DHT22;3254;47.372;8.512;2023-10-31T12:35:51;12.60;1.00
6443;DHT22;3254;47.372;8.512;2023-10-31T12:38:17;12.60;1.00
6443;DHT22;3254;47.372;8.512;2023-10-31T12:40:44;12.50;1.00
6443;DHT22;3254;47.372;8.512;2023-10-31T12:43:10;12.50;1.00
6443;DHT22;3254;47.372;8.512;2023-10-31T12:45:36;12.50;1.00
6443;DHT22;3254;47.372;8.512;2023-10-31T12:48:09;12.50;1.00
6443;DHT22;3254;47.372;8.512;2023-10-31T12:50:36;12.50;1.00
6443;DHT22;3254;47.372;8.512;2023-10-31T12:53:03;12.40;1.00
6443;DHT22;3254;47.372;8.512;2023-10-31T12:55:30;12.50;1.00
6443;DHT22;3254;47.372;8.512;2023-10-31T12:57:57;12.60;1.00
6443;DHT22;3254;47.372;8.512;2023-10-31T13:00:30;12.70;1.00
6443;DHT22;3254;47.372;8.512;2023-10-31T13:03:15;12.80;1.00
6443;DHT22;3254;47.372;8.512;2023-10-31T13:05:40;12.80;1.00
6443;DHT22;3254;47.372;8.512;2023-10-31T13:08:13;13.00;1.00
6443;DHT22;3254;47.372;8.512;2023-10-31T13:10:39;13.10;1.00
6443;DHT22;3254;47.372;8.512;2023-10-31T13:13:05;13.30;1.00
6443;DHT22;3254;47.372;8.512;2023-10-31T13:15:30;13.30;1.00
6443;DHT22;3254;47.372;8.512;2023-10-31T13:17:56;13.30;1.00
6443;DHT22;3254;47.372;8.512;2023-10-31T13:20:22;13.30;1.00
6443;DHT22;3254;47.372;8.512;2023-10-31T13:22:48;13.30;1.00
6443;DHT22;3254;47.372;8.512;2023-10-31T13:25:15;13.10;1.00
6443;DHT22;3254;47.372;8.512;2023-10-31T13:27:43;13.00;1.00
6443;DHT22;3254;47.372;8.512;2023-10-31T13:30:12;12.90;1.00
6443;DHT22;3254;47.372;8.512;2023-10-31T13:32:41;13.00;1.00
6443;DHT22;3254;47.372;8.512;2023-10-31T13:35:07;13.10;1.00
6443;DHT22;3254;47.372;8.512;2023-10-31T13:37:36;13.20;1.00
6443;DHT22;3254;47.372;8.512;2023-10-31T13:40:03;13.20;1.00
6443;DHT22;3254;47.372;8.512;2023-10-31T13:42:29;13.20;1.00
6443;DHT22;3254;47.372;8.512;2023-10-31T13:44:54;13.00;1.00
6443;DHT22;3254;47.372;8.512;2023-10-31T13:47:20;12.90;1.00
6443;DHT22;3254;47.372;8.512;2023-10-31T13:49:46;13.00;1.00
6443;DHT22;3254;47.372;8.512;2023-10-31T13:52:12;13.00;1.00
6443;DHT22;3254;47.372;8.512;2023-10-31T13:54:37;13.00;1.00
6443;DHT22;3254;47.372;8.512;2023-10-31T13:57:03;13.00;1.00
6443;DHT22;3254;47.372;8.512;2023-10-31T13:59:29;12.90;1.00
6443;DHT22;3254;47.372;8.512;2023-10-31T14:01:55;12.90;1.00
6443;DHT22;3254;47.372;8.512;2023-10-31T14:04:20;12.70;1.00
6443;DHT22;3254;47.372;8.512;2023-10-31T14:06:46;12.70;1.00
6443;DHT22;3254;47.372;8.512;2023-10-31T14:09:12;12.60;1.00
6443;DHT22;3254;47.372;8.512;2023-10-31T14:11:41;12.40;1.00
6443;DHT22;3254;47.372;8.512;2023-10-31T14:14:07;12.20;1.00
6443;DHT22;3254;47.372;8.512;2023-10-31T14:16:42;12.20;1.00
6443;DHT22;3254;47.372;8.512;2023-10-31T14:19:11;12.10;1.00
6443;DHT22;3254;47.372;8.512;2023-10-31T14:21:37;11.90;1.00
6443;DHT22;3254;47.372;8.512;2023-10-31T14:24:03;11.90;1.00
6443;DHT22;3254;47.372;8.512;2023-10-31T14:26:29;12.00;1.00
6443;DHT22;3254;47.372;8.512;2023-10-31T14:28:56;12.10;1.00
6443;DHT22;3254;47.372;8.512;2023-10-31T14:31:22;12.20;1.00
6443;DHT22;3254;47.372;8.512;2023-10-31T14:33:47;12.00;1.00
6443;DHT22;3254;47.372;8.512;2023-10-31T14:36:13;11.90;1.00
6443;DHT22;3254;47.372;8.512;2023-10-31T14:38:40;11.90;1.00
6443;DHT22;3254;47.372;8.512;2023-10-31T14:41:06;12.00;1.00
6443;DHT22;3254;47.372;8.512;2023-10-31T14:43:31;12.00;1.00
6443;DHT22;3254;47.372;8.512;2023-10-31T14:45:57;12.10;1.00
6443;DHT22;3254;47.372;8.512;2023-10-31T14:48:23;12.20;1.00
6443;DHT22;3254;47.372;8.512;2023-10-31T14:50:49;12.10;1.00
6443;DHT22;3254;47.372;8.512;2023-10-31T14:53:15;12.10;1.00
6443;DHT22;3254;47.372;8.512;2023-10-31T14:55:41;12.10;1.00
6443;DHT22;3254;47.372;8.512;2023-10-31T14:58:06;11.90;1.00
6443;DHT22;3254;47.372;8.512;2023-10-31T15:00:35;11.60;1.00
6443;DHT22;3254;47.372;8.512;2023-10-31T15:03:01;11.30;1.00
6443;DHT22;3254;47.372;8.512;2023-10-31T15:05:27;11.10;1.00
6443;DHT22;3254;47.372;8.512;2023-10-31T15:07:52;11.10;1.00
6443;DHT22;3254;47.372;8.512;2023-10-31T15:10:21;11.00;1.00
6443;DHT22;3254;47.372;8.512;2023-10-31T15:12:48;10.90;1.00
6443;DHT22;3254;47.372;8.512;2023-10-31T15:15:15;10.90;1.00
6443;DHT22;3254;47.372;8.512;2023-10-31T15:17:41;10.80;1.00
6443;DHT22;3254;47.372;8.512;2023-10-31T15:20:07;10.80;1.00
6443;DHT22;3254;47.372;8.512;2023-10-31T15:22:35;10.80;1.00
6443;DHT22;3254;47.372;8.512;2023-10-31T15:25:01;10.80;1.00
6443;DHT22;3254;47.372;8.512;2023-10-31T15:27:27;10.80;1.00
6443;DHT22;3254;47.372;8.512;2023-10-31T15:29:52;10.80;1.00
6443;DHT22;3254;47.372;8.512;2023-10-31T15:32:18;10.80;1.00
6443;DHT22;3254;47.372;8.512;2023-10-31T15:34:43;10.80;1.00
6443;DHT22;3254;47.372;8.512;2023-10-31T15:37:09;10.90;1.00
6443;DHT22;3254;47.372;8.512;2023-10-31T15:39:37;10.90;1.00
6443;DHT22;3254;47.372;8.512;2023-10-31T15:42:03;10.90;1.00
6443;DHT22;3254;47.372;8.512;2023-10-31T15:44:28;10.90;1.00
6443;DHT22;3254;47.372;8.512;2023-10-31T15:46:54;10.90;1.00
6443;DHT22;3254;47.372;8.512;2023-10-31T15:49:20;10.90;1.00
6443;DHT22;3254;47.372;8.512;2023-10-31T15:51:45;11.00;1.00
6443;DHT22;3254;47.372;8.512;2023-10-31T15:54:11;10.90;1.00
6443;DHT22;3254;47.372;8.512;2023-10-31T15:56:36;11.00;1.00
6443;DHT22;3254;47.372;8.512;2023-10-31T15:59:02;11.00;1.00
6443;DHT22;3254;47.372;8.512;2023-10-31T16:01:28;10.90;1.00
6443;DHT22;3254;47.372;8.512;2023-10-31T16:03:53;10.80;1.00
6443;DHT22;3254;47.372;8.512;2023-10-31T16:06:19;10.80;1.00
6443;DHT22;3254;47.372;8.512;2023-10-31T16:08:45;10.80;1.00
6443;DHT22;3254;47.372;8.512;2023-10-31T16:11:10;10.70;1.00
6443;DHT22;3254;47.372;8.512;2023-10-31T16:13:37;10.90;1.00
6443;DHT22;3254;47.372;8.512;2023-10-31T16:16:09;11.00;1.00
6443;DHT22;3254;47.372;8.512;2023-10-31T16:18:35;11.00;1.00
6443;DHT22;3254;47.372;8.512;2023-10-31T16:21:03;11.10;1.00
6443;DHT22;3254;47.372;8.512;2023-10-31T16:23:30;11.10;1.00